sensor_id;sensor_type;location;lat;lon;timestamp;pressure;altitude;pressure_sealevel;temperature;humidity
20079;BME280;10199;48.850;8.924;2023-11-21T00:01:26;96625.56;;;5.81;99.87
20079;BME280;10199;48.850;8.924;2023-11-21T00:03:54;96629.28;;;5.86;99.53
20079;BME280;10199;48.850;8.924;2023-11-21T00:06:22;96622.94;;;5.81;100.00
20079;BME280;10199;48.850;8.924;2023-11-21T00:08:50;96592.94;;;5.60;100.00
20079;BME280;10199;48.850;8.924;2023-11-21T00:11:18;96621.78;;;5.83;100.00
20079;BME280;10199;48.850;8.924;2023-11-21T00:13:46;96592.16;;;5.74;99.79
20079;BME280;10199;48.850;8.924;2023-11-21T00:16:14;96616.66;;;5.90;100.00
20079;BME280;10199;48.850;8.924;2023-11-21T00:18:44;96605.00;;;5.92;100.00
20079;BME280;10199;48.850;8.924;2023-11-21T00:21:13;96613.69;;;5.93;100.00
20079;BME280;10199;48.850;8.924;2023-11-21T00:23:41;96611.34;;;5.98;100.00
20079;BME280;10199;48.850;8.924;2023-11-21T00:26:09;96612.63;;;6.02;99.96
20079;BME280;10199;48.850;8.924;2023-11-21T00:28:38;96618.50;;;6.04;100.00
20079;BME280;10199;48.850;8.924;2023-11-21T00:31:06;96620.94;;;6.05;100.00
20079;BME280;10199;48.850;8.924;2023-11-21T00:33:34;96618.81;;;6.09;100.00
20079;BME280;10199;48.850;8.924;2023-11-21T00:36:05;96602.94;;;6.02;100.00
20079;BME280;10199;48.850;8.924;2023-11-21T00:38:36;96619.72;;;6.16;100.00
20079;BME280;10199;48.850;8.924;2023-11-21T00:41:06;96619.56;;;6.18;100.00
20079;BME280;10199;48.850;8.924;2023-11-21T00:43:34;96625.97;;;6.15;100.00
20079;BME280;10199;48.850;8.924;2023-11-21T00:46:04;96449.22;;;5.18;99.67
20079;BME280;10199;48.850;8.924;2023-11-21T00:48:32;96621.34;;;6.17;100.00
20079;BME280;10199;48.850;8.924;2023-11-21T00:51:00;96631.97;;;6.24;100.00
20079;BME280;10199;48.850;8.924;2023-11-21T00:53:29;96608.63;;;6.06;100.00
20079;BME280;10199;48.850;8.924;2023-11-21T00:55:58;96619.38;;;6.19;100.00
20079;BME280;10199;48.850;8.924;2023-11-21T00:58:26;96484.63;;;5.37;100.00
20079;BME280;10199;48.850;8.924;2023-11-21T01:00:54;96530.63;;;5.62;100.00
20079;BME280;10199;48.850;8.924;2023-11-21T01:03:22;96624.63;;;6.19;100.00
20079;BME280;10199;48.850;8.924;2023-11-21T01:05:50;96623.44;;;6.22;100.00
20079;BME280;10199;48.850;8.924;2023-11-21T01:08:19;96623.81;;;6.19;100.00
20079;BME280;10199;48.850;8.924;2023-11-21T01:10:48;96620.19;;;6.20;100.00
20079;BME280;10199;48.850;8.924;2023-11-21T01:13:16;96522.47;;;5.57;100.00
20079;BME280;10199;48.850;8.924;2023-11-21T01:15:45;96628.78;;;6.28;100.00
20079;BME280;10199;48.850;8.924;2023-11-21T01:18:13;96629.78;;;6.27;100.00
20079;BME280;10199;48.850;8.924;2023-11-21T01:20:41;96415.38;;;4.94;100.00
20079;BME280;10199;48.850;8.924;2023-11-21T01:23:09;96622.09;;;6.26;100.00
20079;BME280;10199;48.850;8.924;2023-11-21T01:25:37;96626.44;;;6.33;100.00
20079;BME280;10199;48.850;8.924;2023-11-21T01:28:06;96623.19;;;6.31;100.00
20079;BME280;10199;48.850;8.924;2023-11-21T01:30:34;96619.38;;;6.34;100.00
20079;BME280;10199;48.850;8.924;2023-11-21T01:33:02;96626.81;;;6.30;100.00
20079;BME280;10199;48.850;8.924;2023-11-21T01:35:30;96499.50;;;5.59;100.00
20079;BME280;10199;48.850;8.924;2023-11-21T01:37:58;96613.59;;;6.38;100.00
20079;BME280;10199;48.850;8.924;2023-11-21T01:40:26;96617.94;;;6.31;100.00
20079;BME280;10199;48.850;8.924;2023-11-21T01:42:56;96579.75;;;6.06;100.00
20079;BME280;10199;48.850;8.924;2023-11-21T01:45:26;96608.25;;;6.32;100.00
20079;BME280;10199;48.850;8.924;2023-11-21T01:47:56;96607.53;;;6.38;100.00
20079;BME280;10199;48.850;8.924;2023-11-21T01:50:25;96541.84;;;5.94;100.00
20079;BME280;10199;48.850;8.924;2023-11-21T01:52:53;96605.06;;;6.36;100.00
20079;BME280;10199;48.850;8.924;2023-11-21T01:55:22;96607.69;;;6.36;100.00
20079;BME280;10199;48.850;8.924;2023-11-21T01:57:53;96605.16;;;6.43;100.00
20079;BME280;10199;48.850;8.924;2023-11-21T02:00:22;96582.69;;;6.26;100.00
20079;BME280;10199;48.850;8.924;2023-11-21T02:02:52;96603.16;;;6.45;100.00
20079;BME280;10199;48.850;8.924;2023-11-21T02:05:20;96611.88;;;6.46;100.00
20079;BME280;10199;48.850;8.924;2023-11-21T02:07:49;96612.03;;;6.44;100.00
20079;BME280;10199;48.850;8.924;2023-11-21T02:10:19;96609.25;;;6.46;100.00
20079;BME280;10199;48.850;8.924;2023-11-21T02:12:49;96609.41;;;6.44;100.00
20079;BME280;10199;48.850;8.924;2023-11-21T02:15:18;96610.22;;;6.45;100.00
20079;BME280;10199;48.850;8.924;2023-11-21T02:17:49;96614.22;;;6.41;100.00
20079;BME280;10199;48.850;8.924;2023-11-21T02:20:20;96609.78;;;6.41;100.00
20079;BME280;10199;48.850;8.924;2023-11-21T02:22:54;96611.22;;;6.44;100.00
20079;BME280;10199;48.850;8.924;2023-11-21T02:25:25;96629.78;;;6.42;100.00
20079;BME280;10199;48.850;8.924;2023-11-21T02:27:54;96608.59;;;6.44;100.00
20079;BME280;10199;48.850;8.924;2023-11-21T02:30:23;96620.56;;;6.46;100.00
20079;BME280;10199;48.850;8.924;2023-11-21T02:32:51;96484.41;;;5.61;100.00
20079;BME280;10199;48.850;8.924;2023-11-21T02:35:21;96610.78;;;6.55;100.00
20079;BME280;10199;48.850;8.924;2023-11-21T02:37:49;96607.44;;;6.46;100.00
20079;BME280;10199;48.850;8.924;2023-11-21T02:40:19;96606.34;;;6.41;100.00
20079;BME280;10199;48.850;8.924;2023-11-21T02:42:48;96601.00;;;6.34;100.00
20079;BME280;10199;48.850;8.924;2023-11-21T02:45:19;96608.69;;;6.35;100.00
20079;BME280;10199;48.850;8.924;2023-11-21T02:47:48;96605.53;;;6.40;100.00
20079;BME280;10199;48.850;8.924;2023-11-21T02:50:16;96542.75;;;6.01;100.00
20079;BME280;10199;48.850;8.924;2023-11-21T02:52:45;96597.19;;;6.36;100.00
20079;BME280;10199;48.850;8.924;2023-11-21T02:55:14;96601.53;;;6.44;100.00
20079;BME280;10199;48.850;8.924;2023-11-21T02:57:43;96598.81;;;6.37;100.00
20079;BME280;10199;48.850;8.924;2023-11-21T03:00:12;96521.69;;;5.86;100.00
20079;BME280;10199;48.850;8.924;2023-11-21T03:02:41;96592.75;;;6.37;100.00
20079;BME280;10199;48.850;8.924;2023-11-21T03:05:10;96602.25;;;6.38;100.00
20079;BME280;10199;48.850;8.924;2023-11-21T03:07:39;96607.69;;;6.36;100.00
20079;BME280;10199;48.850;8.924;2023-11-21T03:10:08;96513.38;;;5.83;100.00
20079;BME280;10199;48.850;8.924;2023-11-21T03:12:37;96595.19;;;6.38;100.00
20079;BME280;10199;48.850;8.924;2023-11-21T03:15:08;96597.00;;;6.38;100.00
20079;BME280;10199;48.850;8.924;2023-11-21T03:17:36;96593.56;;;6.37;100.00
20079;BME280;10199;48.850;8.924;2023-11-21T03:20:05;96596.09;;;6.46;100.00
20079;BME280;10199;48.850;8.924;2023-11-21T03:22:37;96482.06;;;5.66;100.00
20079;BME280;10199;48.850;8.924;2023-11-21T03:25:06;96613.22;;;6.42;100.00
20079;BME280;10199;48.850;8.924;2023-11-21T03:27:37;96603.16;;;6.45;100.00
20079;BME280;10199;48.850;8.924;2023-11-21T03:30:09;96508.50;;;5.80;100.00
20079;BME280;10199;48.850;8.924;2023-11-21T03:32:37;96613.84;;;6.44;100.00
20079;BME280;10199;48.850;8.924;2023-11-21T03:35:06;96609.59;;;6.43;100.00
20079;BME280;10199;48.850;8.924;2023-11-21T03:37:34;96604.88;;;6.53;100.00
20079;BME280;10199;48.850;8.924;2023-11-21T03:40:03;96616.47;;;6.44;100.00
20079;BME280;10199;48.850;8.924;2023-11-21T03:42:31;96604.44;;;6.49;100.00
20079;BME280;10199;48.850;8.924;2023-11-21T03:44:59;96609.22;;;6.60;100.00
20079;BME280;10199;48.850;8.924;2023-11-21T03:47:29;96618.00;;;6.67;100.00
20079;BME280;10199;48.850;8.924;2023-11-21T03:49:57;96617.91;;;6.76;100.00
20079;BME280;10199;48.850;8.924;2023-11-21T03:52:25;96620.19;;;6.64;100.00
20079;BME280;10199;48.850;8.924;2023-11-21T03:54:53;96615.22;;;6.54;100.00
20079;BME280;10199;48.850;8.924;2023-11-21T03:57:22;96620.00;;;6.51;100.00
20079;BME280;10199;48.850;8.924;2023-11-21T03:59:50;96619.75;;;6.60;100.00
20079;BME280;10199;48.850;8.924;2023-11-21T04:02:18;96623.28;;;6.53;100.00
20079;BME280;10199;48.850;8.924;2023-11-21T04:04:48;96616.41;;;6.52;100.00
20079;BME280;10199;48.850;8.924;2023-11-21T04:07:16;96623.72;;;6.42;100.00
20079;BME280;10199;48.850;8.924;2023-11-21T04:09:44;96618.94;;;6.45;100.00
20079;BME280;10199;48.850;8.924;2023-11-21T04:12:12;96626.72;;;6.38;100.00
20079;BME280;10199;48.850;8.924;2023-11-21T04:14:41;96558.63;;;5.85;100.00
20079;BME280;10199;48.850;8.924;2023-11-21T04:17:08;96632.06;;;6.45;100.00
20079;BME280;10199;48.850;8.924;2023-11-21T04:19:37;96634.78;;;6.52;100.00
20079;BME280;10199;48.850;8.924;2023-11-21T04:22:06;96625.91;;;6.53;100.00
20079;BME280;10199;48.850;8.924;2023-11-21T04:24:34;96499.94;;;5.48;100.00
20079;BME280;10199;48.850;8.924;2023-11-21T04:27:02;96627.16;;;6.27;100.00
20079;BME280;10199;48.850;8.924;2023-11-21T04:29:30;96628.53;;;6.23;100.00
20079;BME280;10199;48.850;8.924;2023-11-21T04:31:58;96634.69;;;6.30;100.00
20079;BME280;10199;48.850;8.924;2023-11-21T04:34:26;96585.81;;;5.92;100.00
20079;BME280;10199;48.850;8.924;2023-11-21T04:36:56;96629.59;;;6.14;100.00
20079;BME280;10199;48.850;8.924;2023-11-21T04:39:26;96636.13;;;6.33;100.00
20079;BME280;10199;48.850;8.924;2023-11-21T04:41:54;96639.47;;;6.12;100.00
20079;BME280;10199;48.850;8.924;2023-11-21T04:44:22;96637.22;;;6.01;100.00
20079;BME280;10199;48.850;8.924;2023-11-21T04:46:50;96633.41;;;6.26;100.00
20079;BME280;10199;48.850;8.924;2023-11-21T04:49:18;96632.69;;;6.18;100.00
20079;BME280;10199;48.850;8.924;2023-11-21T04:51:46;96632.56;;;6.11;100.00
20079;BME280;10199;48.850;8.924;2023-11-21T04:54:14;96620.50;;;6.02;100.00
20079;BME280;10199;48.850;8.924;2023-11-21T04:56:43;96625.34;;;6.13;100.00
20079;BME280;10199;48.850;8.924;2023-11-21T04:59:11;96630.88;;;6.18;100.00
20079;BME280;10199;48.850;8.924;2023-11-21T05:01:39;96633.94;;;6.07;100.00
20079;BME280;10199;48.850;8.924;2023-11-21T05:04:07;96539.47;;;5.47;100.00
20079;BME280;10199;48.850;8.924;2023-11-21T05:06:36;96636.94;;;5.96;100.00
20079;BME280;10199;48.850;8.924;2023-11-21T05:09:04;96632.13;;;6.07;100.00
20079;BME280;10199;48.850;8.924;2023-11-21T05:11:32;96576.97;;;5.70;100.00
20079;BME280;10199;48.850;8.924;2023-11-21T05:14:02;96634.88;;;6.06;100.00
20079;BME280;10199;48.850;8.924;2023-11-21T05:16:31;96572.56;;;5.48;100.00
20079;BME280;10199;48.850;8.924;2023-11-21T05:18:59;96640.81;;;6.08;100.00
20079;BME280;10199;48.850;8.924;2023-11-21T05:21:28;96649.50;;;6.09;100.00
20079;BME280;10199;48.850;8.924;2023-11-21T05:23:58;96655.44;;;5.80;100.00
20079;BME280;10199;48.850;8.924;2023-11-21T05:26:26;96617.94;;;5.71;100.00
20079;BME280;10199;48.850;8.924;2023-11-21T05:28:54;96654.03;;;5.92;100.00
20079;BME280;10199;48.850;8.924;2023-11-21T05:31:23;96657.88;;;5.81;100.00
20079;BME280;10199;48.850;8.924;2023-11-21T05:33:52;96664.06;;;5.88;100.00
20079;BME280;10199;48.850;8.924;2023-11-21T05:36:20;96553.88;;;5.28;100.00
20079;BME280;10199;48.850;8.924;2023-11-21T05:38:48;96673.16;;;6.00;100.00
20079;BME280;10199;48.850;8.924;2023-11-21T05:41:16;96672.34;;;6.00;100.00
20079;BME280;10199;48.850;8.924;2023-11-21T05:43:44;96670.00;;;6.05;100.00
20079;BME280;10199;48.850;8.924;2023-11-21T05:46:12;96675.16;;;5.98;100.00
20079;BME280;10199;48.850;8.924;2023-11-21T05:48:42;96676.25;;;5.58;100.00
20079;BME280;10199;48.850;8.924;2023-11-21T05:51:10;96675.72;;;5.40;100.00
20079;BME280;10199;48.850;8.924;2023-11-21T05:53:39;96679.16;;;5.63;100.00
20079;BME280;10199;48.850;8.924;2023-11-21T05:56:07;96687.78;;;5.49;100.00
20079;BME280;10199;48.850;8.924;2023-11-21T05:58:35;96681.53;;;5.50;100.00
20079;BME280;10199;48.850;8.924;2023-11-21T06:01:05;96687.56;;;5.59;100.00
20079;BME280;10199;48.850;8.924;2023-11-21T06:03:34;96676.41;;;5.34;100.00
20079;BME280;10199;48.850;8.924;2023-11-21T06:06:04;96687.78;;;5.49;100.00
20079;BME280;10199;48.850;8.924;2023-11-21T06:08:32;96648.19;;;5.36;100.00
20079;BME280;10199;48.850;8.924;2023-11-21T06:11:00;96696.25;;;5.59;100.00
20079;BME280;10199;48.850;8.924;2023-11-21T06:13:28;96701.94;;;5.40;100.00
20079;BME280;10199;48.850;8.924;2023-11-21T06:15:57;96703.97;;;5.30;100.00
20079;BME280;10199;48.850;8.924;2023-11-21T06:18:25;96696.13;;;5.53;100.00
20079;BME280;10199;48.850;8.924;2023-11-21T06:20:53;96696.34;;;5.66;100.00
20079;BME280;10199;48.850;8.924;2023-11-21T06:23:22;96693.16;;;5.56;100.00
20079;BME280;10199;48.850;8.924;2023-11-21T06:25:50;96700.06;;;5.49;100.00
20079;BME280;10199;48.850;8.924;2023-11-21T06:28:19;96706.19;;;5.41;100.00
20079;BME280;10199;48.850;8.924;2023-11-21T06:30:47;96696.69;;;5.40;100.00
20079;BME280;10199;48.850;8.924;2023-11-21T06:33:15;96698.63;;;5.46;100.00
20079;BME280;10199;48.850;8.924;2023-11-21T06:35:44;96677.78;;;5.22;100.00
20079;BME280;10199;48.850;8.924;2023-11-21T06:38:12;96657.81;;;5.12;100.00
20079;BME280;10199;48.850;8.924;2023-11-21T06:40:41;96706.09;;;5.57;100.00
20079;BME280;10199;48.850;8.924;2023-11-21T06:43:09;96713.38;;;5.70;100.00
20079;BME280;10199;48.850;8.924;2023-11-21T06:45:37;96730.22;;;5.53;100.00
20079;BME280;10199;48.850;8.924;2023-11-21T06:48:05;96720.50;;;5.61;100.00
20079;BME280;10199;48.850;8.924;2023-11-21T06:50:33;96728.41;;;5.53;100.00
20079;BME280;10199;48.850;8.924;2023-11-21T06:53:01;96697.63;;;5.47;100.00
20079;BME280;10199;48.850;8.924;2023-11-21T06:55:33;96726.38;;;5.63;100.00
20079;BME280;10199;48.850;8.924;2023-11-21T06:58:03;96732.47;;;5.87;100.00
20079;BME280;10199;48.850;8.924;2023-11-21T07:00:31;96733.09;;;5.89;100.00
20079;BME280;10199;48.850;8.924;2023-11-21T07:03:00;96739.03;;;5.91;100.00
20079;BME280;10199;48.850;8.924;2023-11-21T07:05:31;96738.50;;;5.95;100.00
20079;BME280;10199;48.850;8.924;2023-11-21T07:07:59;96569.75;;;4.72;100.00
20079;BME280;10199;48.850;8.924;2023-11-21T07:10:31;96746.94;;;6.05;100.00
20079;BME280;10199;48.850;8.924;2023-11-21T07:12:59;96748.72;;;6.13;100.00
20079;BME280;10199;48.850;8.924;2023-11-21T07:15:29;96750.38;;;6.14;100.00
20079;BME280;10199;48.850;8.924;2023-11-21T07:17:57;96748.91;;;6.12;100.00
20079;BME280;10199;48.850;8.924;2023-11-21T07:20:25;96759.59;;;6.10;100.00
20079;BME280;10199;48.850;8.924;2023-11-21T07:22:53;96773.28;;;6.20;100.00
20079;BME280;10199;48.850;8.924;2023-11-21T07:25:22;96763.72;;;6.27;100.00
20079;BME280;10199;48.850;8.924;2023-11-21T07:27:50;96762.66;;;6.36;100.00
20079;BME280;10199;48.850;8.924;2023-11-21T07:30:19;96771.63;;;6.42;100.00
20079;BME280;10199;48.850;8.924;2023-11-21T07:32:50;96779.81;;;6.47;100.00
20079;BME280;10199;48.850;8.924;2023-11-21T07:35:18;96786.44;;;6.58;100.00
20079;BME280;10199;48.850;8.924;2023-11-21T07:37:46;96780.56;;;6.56;100.00
20079;BME280;10199;48.850;8.924;2023-11-21T07:40:16;96782.75;;;6.67;100.00
20079;BME280;10199;48.850;8.924;2023-11-21T07:42:44;96781.81;;;6.60;100.00
20079;BME280;10199;48.850;8.924;2023-11-21T07:45:12;96790.88;;;6.57;100.00
20079;BME280;10199;48.850;8.924;2023-11-21T07:47:41;96790.91;;;6.34;100.00
20079;BME280;10199;48.850;8.924;2023-11-21T07:50:11;96785.59;;;6.20;100.00
20079;BME280;10199;48.850;8.924;2023-11-21T07:52:40;96790.38;;;6.16;100.00
20079;BME280;10199;48.850;8.924;2023-11-21T07:55:08;96790.75;;;6.13;100.00
20079;BME280;10199;48.850;8.924;2023-11-21T07:57:36;96792.41;;;6.06;100.00
20079;BME280;10199;48.850;8.924;2023-11-21T08:00:06;96793.84;;;6.17;100.00
20079;BME280;10199;48.850;8.924;2023-11-21T08:02:39;96800.53;;;6.19;100.00
20079;BME280;10199;48.850;8.924;2023-11-21T08:05:09;96773.59;;;5.94;100.00
20079;BME280;10199;48.850;8.924;2023-11-21T08:07:40;96796.16;;;6.34;100.00
20079;BME280;10199;48.850;8.924;2023-11-21T08:10:09;96801.47;;;6.49;100.00
20079;BME280;10199;48.850;8.924;2023-11-21T08:12:38;96760.56;;;6.09;100.00
20079;BME280;10199;48.850;8.924;2023-11-21T08:15:06;96803.63;;;6.46;100.00
20079;BME280;10199;48.850;8.924;2023-11-21T08:17:35;96802.69;;;6.38;100.00
20079;BME280;10199;48.850;8.924;2023-11-21T08:20:04;96800.13;;;6.30;100.00
20079;BME280;10199;48.850;8.924;2023-11-21T08:22:32;96807.88;;;6.47;100.00
20079;BME280;10199;48.850;8.924;2023-11-21T08:25:02;96766.41;;;6.19;100.00
20079;BME280;10199;48.850;8.924;2023-11-21T08:27:31;96566.66;;;5.00;100.00
20079;BME280;10199;48.850;8.924;2023-11-21T08:30:00;96804.75;;;6.28;100.00
20079;BME280;10199;48.850;8.924;2023-11-21T08:32:28;96806.09;;;6.24;100.00
20079;BME280;10199;48.850;8.924;2023-11-21T08:34:57;96806.66;;;6.34;100.00
20079;BME280;10199;48.850;8.924;2023-11-21T08:37:25;96814.00;;;6.39;100.00
20079;BME280;10199;48.850;8.924;2023-11-21T08:39:53;96811.91;;;6.34;100.00
20079;BME280;10199;48.850;8.924;2023-11-21T08:42:23;96822.53;;;6.64;100.00
20079;BME280;10199;48.850;8.924;2023-11-21T08:44:51;96814.47;;;6.65;100.00
20079;BME280;10199;48.850;8.924;2023-11-21T08:47:19;96595.13;;;5.03;100.00
20079;BME280;10199;48.850;8.924;2023-11-21T08:49:47;96827.34;;;6.75;100.00
20079;BME280;10199;48.850;8.924;2023-11-21T08:52:15;96826.34;;;6.76;100.00
20079;BME280;10199;48.850;8.924;2023-11-21T08:54:44;96807.09;;;6.61;100.00
20079;BME280;10199;48.850;8.924;2023-11-21T08:57:12;96766.88;;;6.23;100.00
20079;BME280;10199;48.850;8.924;2023-11-21T08:59:42;96832.19;;;6.86;100.00
20079;BME280;10199;48.850;8.924;2023-11-21T09:02:10;96830.50;;;6.70;100.00
20079;BME280;10199;48.850;8.924;2023-11-21T09:04:38;96831.53;;;6.84;100.00
20079;BME280;10199;48.850;8.924;2023-11-21T09:07:06;96836.25;;;6.89;100.00
20079;BME280;10199;48.850;8.924;2023-11-21T09:09:35;96835.78;;;6.85;100.00
20079;BME280;10199;48.850;8.924;2023-11-21T09:12:03;96838.44;;;6.85;100.00
20079;BME280;10199;48.850;8.924;2023-11-21T09:14:31;96902.78;;;6.89;100.00
20079;BME280;10199;48.850;8.924;2023-11-21T09:17:01;96849.19;;;6.98;100.00
20079;BME280;10199;48.850;8.924;2023-11-21T09:19:29;96846.66;;;6.82;100.00
20079;BME280;10199;48.850;8.924;2023-11-21T09:21:57;96805.78;;;6.42;100.00
20079;BME280;10199;48.850;8.924;2023-11-21T09:24:25;96772.72;;;6.10;100.00
20079;BME280;10199;48.850;8.924;2023-11-21T09:26:53;96854.63;;;6.74;100.00
20079;BME280;10199;48.850;8.924;2023-11-21T09:29:21;96864.34;;;6.88;100.00
20079;BME280;10199;48.850;8.924;2023-11-21T09:31:49;96735.72;;;6.20;100.00
20079;BME280;10199;48.850;8.924;2023-11-21T09:34:19;96869.78;;;7.10;100.00
20079;BME280;10199;48.850;8.924;2023-11-21T09:36:47;96871.63;;;7.24;100.00
20079;BME280;10199;48.850;8.924;2023-11-21T09:39:15;96873.97;;;7.19;100.00
20079;BME280;10199;48.850;8.924;2023-11-21T09:41:49;96780.75;;;6.31;100.00
20079;BME280;10199;48.850;8.924;2023-11-21T09:44:22;96880.94;;;7.12;100.00
20079;BME280;10199;48.850;8.924;2023-11-21T09:46:51;96808.16;;;6.52;100.00
20079;BME280;10199;48.850;8.924;2023-11-21T09:49:23;96880.50;;;7.23;100.00
20079;BME280;10199;48.850;8.924;2023-11-21T09:51:55;96841.34;;;6.90;100.00
20079;BME280;10199;48.850;8.924;2023-11-21T09:54:24;96875.59;;;7.20;100.00
20079;BME280;10199;48.850;8.924;2023-11-21T09:56:53;96882.69;;;7.34;100.00
20079;BME280;10199;48.850;8.924;2023-11-21T09:59:21;96879.50;;;7.39;100.00
20079;BME280;10199;48.850;8.924;2023-11-21T10:01:49;96880.97;;;7.56;100.00
20079;BME280;10199;48.850;8.924;2023-11-21T10:04:18;96867.34;;;7.67;100.00
20079;BME280;10199;48.850;8.924;2023-11-21T10:06:50;96877.97;;;7.74;100.00
20079;BME280;10199;48.850;8.924;2023-11-21T10:09:19;96880.53;;;7.82;100.00
20079;BME280;10199;48.850;8.924;2023-11-21T10:11:49;96878.78;;;7.74;100.00
20079;BME280;10199;48.850;8.924;2023-11-21T10:14:19;96878.97;;;7.73;100.00
20079;BME280;10199;48.850;8.924;2023-11-21T10:16:49;96886.13;;;7.79;100.00
20079;BME280;10199;48.850;8.924;2023-11-21T10:19:17;96890.59;;;7.78;100.00
20079;BME280;10199;48.850;8.924;2023-11-21T10:21:47;96884.44;;;7.86;100.00
20079;BME280;10199;48.850;8.924;2023-11-21T10:24:17;96883.22;;;7.74;100.00
20079;BME280;10199;48.850;8.924;2023-11-21T10:26:45;96890.22;;;7.96;100.00
20079;BME280;10199;48.850;8.924;2023-11-21T10:29:16;96891.47;;;8.15;100.00
20079;BME280;10199;48.850;8.924;2023-11-21T10:31:45;96884.38;;;8.15;100.00
20079;BME280;10199;48.850;8.924;2023-11-21T10:34:14;96873.75;;;8.23;100.00
20079;BME280;10199;48.850;8.924;2023-11-21T10:36:42;96799.28;;;7.64;100.00
20079;BME280;10199;48.850;8.924;2023-11-21T10:39:14;96903.25;;;8.34;100.00
20079;BME280;10199;48.850;8.924;2023-11-21T10:41:45;96889.91;;;8.20;100.00
20079;BME280;10199;48.850;8.924;2023-11-21T10:44:14;96897.66;;;8.07;100.00
20079;BME280;10199;48.850;8.924;2023-11-21T10:46:47;96895.50;;;7.96;100.00
20079;BME280;10199;48.850;8.924;2023-11-21T10:49:17;96632.06;;;6.30;100.00
20079;BME280;10199;48.850;8.924;2023-11-21T10:51:46;96895.84;;;8.08;100.00
20079;BME280;10199;48.850;8.924;2023-11-21T10:54:17;96896.41;;;8.03;100.00
20079;BME280;10199;48.850;8.924;2023-11-21T10:56:49;96892.47;;;8.14;100.00
20079;BME280;10199;48.850;8.924;2023-11-21T10:59:18;96892.66;;;8.12;100.00
20079;BME280;10199;48.850;8.924;2023-11-21T11:01:48;96462.66;;;5.38;100.00
20079;BME280;10199;48.850;8.924;2023-11-21T11:04:19;96899.53;;;8.28;100.00
20079;BME280;10199;48.850;8.924;2023-11-21T11:06:51;96891.19;;;8.24;100.00
20079;BME280;10199;48.850;8.924;2023-11-21T11:09:21;96709.25;;;6.88;100.00
20079;BME280;10199;48.850;8.924;2023-11-21T11:11:52;96732.91;;;6.88;100.00
20079;BME280;10199;48.850;8.924;2023-11-21T11:14:21;96903.19;;;8.12;100.00
20079;BME280;10199;48.850;8.924;2023-11-21T11:16:54;96901.03;;;8.01;100.00
20079;BME280;10199;48.850;8.924;2023-11-21T11:19:23;96904.50;;;7.87;100.00
20079;BME280;10199;48.850;8.924;2023-11-21T11:22:01;96904.50;;;7.87;100.00
20079;BME280;10199;48.850;8.924;2023-11-21T11:25:13;96914.56;;;7.98;100.00
20079;BME280;10199;48.850;8.924;2023-11-21T11:27:54;96907.03;;;7.95;100.00
20079;BME280;10199;48.850;8.924;2023-11-21T11:30:37;96780.09;;;7.19;100.00
20079;BME280;10199;48.850;8.924;2023-11-21T11:33:12;96903.91;;;8.36;100.00
20079;BME280;10199;48.850;8.924;2023-11-21T11:35:51;96836.03;;;7.87;100.00
20079;BME280;10199;48.850;8.924;2023-11-21T11:38:21;96822.69;;;7.88;100.00
20079;BME280;10199;48.850;8.924;2023-11-21T11:40:53;96915.63;;;8.33;100.00
20079;BME280;10199;48.850;8.924;2023-11-21T11:43:26;96915.44;;;8.20;100.00
20079;BME280;10199;48.850;8.924;2023-11-21T11:45:55;96911.56;;;8.52;100.00
20079;BME280;10199;48.850;8.924;2023-11-21T11:48:25;96910.34;;;8.33;99.85
20079;BME280;10199;48.850;8.924;2023-11-21T11:51:01;96914.44;;;8.36;100.00
20079;BME280;10199;48.850;8.924;2023-11-21T11:53:36;96822.81;;;7.80;100.00
20079;BME280;10199;48.850;8.924;2023-11-21T11:56:22;96909.78;;;8.38;100.00
20079;BME280;10199;48.850;8.924;2023-11-21T11:58:55;96916.25;;;8.20;100.00
20079;BME280;10199;48.850;8.924;2023-11-21T12:01:25;96906.09;;;8.17;100.00
20079;BME280;10199;48.850;8.924;2023-11-21T12:04:25;96907.91;;;8.17;100.00
20079;BME280;10199;48.850;8.924;2023-11-21T12:07:01;96904.03;;;7.98;100.00
20079;BME280;10199;48.850;8.924;2023-11-21T12:09:32;96915.16;;;8.29;100.00
20079;BME280;10199;48.850;8.924;2023-11-21T12:12:02;96916.78;;;8.30;100.00
20079;BME280;10199;48.850;8.924;2023-11-21T12:14:32;96804.19;;;7.82;100.00
20079;BME280;10199;48.850;8.924;2023-11-21T12:17:00;96938.16;;;8.36;100.00
20079;BME280;10199;48.850;8.924;2023-11-21T12:19:29;96919.22;;;8.47;100.00
20079;BME280;10199;48.850;8.924;2023-11-21T12:21:57;96921.84;;;8.47;100.00
20079;BME280;10199;48.850;8.924;2023-11-21T12:24:27;96923.88;;;8.45;99.13
20079;BME280;10199;48.850;8.924;2023-11-21T12:26:56;96926.06;;;8.26;98.27
20079;BME280;10199;48.850;8.924;2023-11-21T12:29:24;96918.53;;;8.74;99.55
20079;BME280;10199;48.850;8.924;2023-11-21T12:31:53;96920.56;;;8.57;99.08
20079;BME280;10199;48.850;8.924;2023-11-21T12:34:23;96924.44;;;8.61;98.03
20079;BME280;10199;48.850;8.924;2023-11-21T12:36:51;96905.16;;;8.40;98.84
20079;BME280;10199;48.850;8.924;2023-11-21T12:39:22;96862.41;;;8.08;99.99
20079;BME280;10199;48.850;8.924;2023-11-21T12:41:50;96922.41;;;8.78;97.91
20079;BME280;10199;48.850;8.924;2023-11-21T12:44:19;96931.56;;;9.25;98.78
20079;BME280;10199;48.850;8.924;2023-11-21T12:46:49;96891.91;;;8.90;97.46
20079;BME280;10199;48.850;8.924;2023-11-21T12:49:20;96934.97;;;8.98;97.63
20079;BME280;10199;48.850;8.924;2023-11-21T12:51:49;96925.25;;;8.62;99.77
20079;BME280;10199;48.850;8.924;2023-11-21T12:54:17;96940.97;;;8.19;100.00
20079;BME280;10199;48.850;8.924;2023-11-21T12:56:46;96934.97;;;8.25;100.00
20079;BME280;10199;48.850;8.924;2023-11-21T12:59:16;96941.44;;;8.08;100.00
20079;BME280;10199;48.850;8.924;2023-11-21T13:01:45;96905.38;;;7.64;100.00
20079;BME280;10199;48.850;8.924;2023-11-21T13:04:13;96953.25;;;7.97;100.00
20079;BME280;10199;48.850;8.924;2023-11-21T13:06:43;96950.16;;;8.09;100.00
20079;BME280;10199;48.850;8.924;2023-11-21T13:09:11;96953.72;;;8.01;100.00
20079;BME280;10199;48.850;8.924;2023-11-21T13:11:44;96711.59;;;6.54;100.00